sensor_id;sensor_type;location;lat;lon;timestamp;P1;durP1;ratioP1;P2;durP2;ratioP2
18776;SDS011;9517;51.174;4.160;2023-03-04T00:01:36;25.40;;;4.80;;
18776;SDS011;9517;51.174;4.160;2023-03-04T00:04:03;26.60;;;5.23;;
18776;SDS011;9517;51.174;4.160;2023-03-04T00:06:31;25.87;;;5.60;;
18776;SDS011;9517;51.174;4.160;2023-03-04T00:08:58;23.43;;;4.73;;
18776;SDS011;9517;51.174;4.160;2023-03-04T00:11:25;23.53;;;5.43;;
18776;SDS011;9517;51.174;4.160;2023-03-04T00:13:54;23.87;;;4.53;;
18776;SDS011;9517;51.174;4.160;2023-03-04T00:16:23;31.60;;;5.43;;
18776;SDS011;9517;51.174;4.160;2023-03-04T00:18:51;22.47;;;4.33;;
18776;SDS011;9517;51.174;4.160;2023-03-04T00:21:18;17.27;;;3.63;;
18776;SDS011;9517;51.174;4.160;2023-03-04T00:23:46;20.93;;;4.43;;
18776;SDS011;9517;51.174;4.160;2023-03-04T00:26:13;20.47;;;4.30;;
18776;SDS011;9517;51.174;4.160;2023-03-04T00:28:40;18.07;;;4.30;;
18776;SDS011;9517;51.174;4.160;2023-03-04T00:31:07;19.57;;;4.23;;
18776;SDS011;9517;51.174;4.160;2023-03-04T00:33:36;20.40;;;5.00;;
18776;SDS011;9517;51.174;4.160;2023-03-04T00:36:04;23.50;;;4.27;;
18776;SDS011;9517;51.174;4.160;2023-03-04T00:38:32;20.90;;;4.30;;
18776;SDS011;9517;51.174;4.160;2023-03-04T00:40:59;27.23;;;4.67;;
18776;SDS011;9517;51.174;4.160;2023-03-04T00:43:26;22.57;;;4.33;;
18776;SDS011;9517;51.174;4.160;2023-03-04T00:45:53;22.17;;;4.43;;
18776;SDS011;9517;51.174;4.160;2023-03-04T00:48:21;23.27;;;4.20;;
18776;SDS011;9517;51.174;4.160;2023-03-04T00:50:49;25.27;;;5.03;;
18776;SDS011;9517;51.174;4.160;2023-03-04T00:53:18;21.47;;;4.53;;
18776;SDS011;9517;51.174;4.160;2023-03-04T00:55:45;28.37;;;4.83;;
18776;SDS011;9517;51.174;4.160;2023-03-04T00:58:12;28.20;;;4.67;;
18776;SDS011;9517;51.174;4.160;2023-03-04T01:00:39;23.93;;;5.30;;
18776;SDS011;9517;51.174;4.160;2023-03-04T01:03:06;24.20;;;4.70;;
18776;SDS011;9517;51.174;4.160;2023-03-04T01:05:34;21.50;;;4.63;;
18776;SDS011;9517;51.174;4.160;2023-03-04T01:08:02;24.63;;;5.17;;
18776;SDS011;9517;51.174;4.160;2023-03-04T01:10:30;20.00;;;5.37;;
18776;SDS011;9517;51.174;4.160;2023-03-04T01:12:57;24.87;;;6.10;;
18776;SDS011;9517;51.174;4.160;2023-03-04T01:15:24;27.53;;;6.10;;
18776;SDS011;9517;51.174;4.160;2023-03-04T01:17:52;23.43;;;5.87;;
18776;SDS011;9517;51.174;4.160;2023-03-04T01:20:19;20.77;;;6.17;;
18776;SDS011;9517;51.174;4.160;2023-03-04T01:22:46;27.17;;;6.97;;
18776;SDS011;9517;51.174;4.160;2023-03-04T01:25:15;29.93;;;6.40;;
18776;SDS011;9517;51.174;4.160;2023-03-04T01:27:42;31.30;;;6.93;;
18776;SDS011;9517;51.174;4.160;2023-03-04T01:30:10;29.17;;;6.53;;
18776;SDS011;9517;51.174;4.160;2023-03-04T01:32:38;29.97;;;7.37;;
18776;SDS011;9517;51.174;4.160;2023-03-04T01:35:05;24.17;;;7.03;;
18776;SDS011;9517;51.174;4.160;2023-03-04T01:37:32;24.00;;;6.60;;
18776;SDS011;9517;51.174;4.160;2023-03-04T01:39:59;23.27;;;6.60;;
18776;SDS011;9517;51.174;4.160;2023-03-04T01:42:29;24.63;;;7.03;;
18776;SDS011;9517;51.174;4.160;2023-03-04T01:44:59;23.43;;;6.17;;
18776;SDS011;9517;51.174;4.160;2023-03-04T01:47:26;26.67;;;6.83;;
18776;SDS011;9517;51.174;4.160;2023-03-04T01:49:56;24.43;;;6.93;;
18776;SDS011;9517;51.174;4.160;2023-03-04T01:52:23;24.17;;;6.60;;
18776;SDS011;9517;51.174;4.160;2023-03-04T01:54:52;29.60;;;7.40;;
18776;SDS011;9517;51.174;4.160;2023-03-04T01:57:21;25.57;;;6.73;;
18776;SDS011;9517;51.174;4.160;2023-03-04T02:02:48;28.53;;;6.87;;
18776;SDS011;9517;51.174;4.160;2023-03-04T02:05:18;23.93;;;7.07;;
18776;SDS011;9517;51.174;4.160;2023-03-04T02:07:46;20.87;;;6.83;;
18776;SDS011;9517;51.174;4.160;2023-03-04T02:10:14;30.57;;;8.13;;
18776;SDS011;9517;51.174;4.160;2023-03-04T02:12:41;31.53;;;9.50;;
18776;SDS011;9517;51.174;4.160;2023-03-04T02:15:09;22.47;;;9.70;;
18776;SDS011;9517;51.174;4.160;2023-03-04T02:17:38;27.80;;;9.73;;
18776;SDS011;9517;51.174;4.160;2023-03-04T02:20:07;29.30;;;9.50;;
18776;SDS011;9517;51.174;4.160;2023-03-04T02:22:42;32.20;;;8.97;;
18776;SDS011;9517;51.174;4.160;2023-03-04T02:25:17;28.40;;;7.30;;
18776;SDS011;9517;51.174;4.160;2023-03-04T02:27:50;22.90;;;7.23;;
18776;SDS011;9517;51.174;4.160;2023-03-04T02:30:19;19.00;;;6.23;;
18776;SDS011;9517;51.174;4.160;2023-03-04T02:32:49;30.13;;;7.40;;
18776;SDS011;9517;51.174;4.160;2023-03-04T02:35:17;29.67;;;7.10;;
18776;SDS011;9517;51.174;4.160;2023-03-04T02:37:45;23.73;;;7.13;;
18776;SDS011;9517;51.174;4.160;2023-03-04T02:40:13;24.33;;;7.13;;
18776;SDS011;9517;51.174;4.160;2023-03-04T02:42:46;25.07;;;7.47;;
18776;SDS011;9517;51.174;4.160;2023-03-04T02:48:13;28.30;;;7.70;;
18776;SDS011;9517;51.174;4.160;2023-03-04T02:50:42;29.97;;;7.80;;
18776;SDS011;9517;51.174;4.160;2023-03-04T02:53:12;22.13;;;6.87;;
18776;SDS011;9517;51.174;4.160;2023-03-04T02:55:39;30.63;;;7.67;;
18776;SDS011;9517;51.174;4.160;2023-03-04T02:58:07;30.83;;;8.17;;
18776;SDS011;9517;51.174;4.160;2023-03-04T03:00:35;26.50;;;8.03;;
18776;SDS011;9517;51.174;4.160;2023-03-04T03:03:04;33.20;;;7.43;;
18776;SDS011;9517;51.174;4.160;2023-03-04T03:05:32;28.70;;;7.97;;
18776;SDS011;9517;51.174;4.160;2023-03-04T03:08:00;28.27;;;8.40;;
18776;SDS011;9517;51.174;4.160;2023-03-04T03:10:27;24.53;;;7.77;;
18776;SDS011;9517;51.174;4.160;2023-03-04T03:12:55;31.40;;;7.97;;
18776;SDS011;9517;51.174;4.160;2023-03-04T03:15:22;20.30;;;7.90;;
18776;SDS011;9517;51.174;4.160;2023-03-04T03:17:49;29.77;;;8.37;;
18776;SDS011;9517;51.174;4.160;2023-03-04T03:20:18;21.93;;;7.80;;
18776;SDS011;9517;51.174;4.160;2023-03-04T03:22:45;25.10;;;7.90;;
18776;SDS011;9517;51.174;4.160;2023-03-04T03:25:13;26.53;;;9.03;;
18776;SDS011;9517;51.174;4.160;2023-03-04T03:27:41;23.27;;;7.40;;
18776;SDS011;9517;51.174;4.160;2023-03-04T03:30:09;29.67;;;8.37;;
18776;SDS011;9517;51.174;4.160;2023-03-04T03:32:37;30.50;;;8.23;;
18776;SDS011;9517;51.174;4.160;2023-03-04T03:35:05;31.60;;;8.67;;
18776;SDS011;9517;51.174;4.160;2023-03-04T03:37:34;24.70;;;8.70;;
18776;SDS011;9517;51.174;4.160;2023-03-04T03:40:01;22.43;;;8.00;;
18776;SDS011;9517;51.174;4.160;2023-03-04T03:42:28;29.00;;;8.70;;
18776;SDS011;9517;51.174;4.160;2023-03-04T03:44:55;26.20;;;9.60;;
18776;SDS011;9517;51.174;4.160;2023-03-04T03:47:22;21.43;;;8.73;;
18776;SDS011;9517;51.174;4.160;2023-03-04T03:49:49;23.90;;;9.63;;
18776;SDS011;9517;51.174;4.160;2023-03-04T03:52:17;27.83;;;9.77;;
18776;SDS011;9517;51.174;4.160;2023-03-04T03:54:45;27.57;;;9.63;;
18776;SDS011;9517;51.174;4.160;2023-03-04T03:57:12;26.80;;;9.90;;
18776;SDS011;9517;51.174;4.160;2023-03-04T03:59:39;31.50;;;8.70;;
18776;SDS011;9517;51.174;4.160;2023-03-04T04:02:06;22.03;;;6.83;;
18776;SDS011;9517;51.174;4.160;2023-03-04T04:04:33;24.47;;;6.50;;
18776;SDS011;9517;51.174;4.160;2023-03-04T04:07:00;22.83;;;6.17;;
18776;SDS011;9517;51.174;4.160;2023-03-04T04:09:28;20.23;;;6.37;;
18776;SDS011;9517;51.174;4.160;2023-03-04T04:11:56;23.43;;;6.70;;
18776;SDS011;9517;51.174;4.160;2023-03-04T04:14:23;27.07;;;6.80;;
18776;SDS011;9517;51.174;4.160;2023-03-04T04:16:50;18.33;;;6.43;;
18776;SDS011;9517;51.174;4.160;2023-03-04T04:19:18;23.60;;;6.13;;
18776;SDS011;9517;51.174;4.160;2023-03-04T04:21:46;19.43;;;6.70;;
18776;SDS011;9517;51.174;4.160;2023-03-04T04:24:13;19.37;;;5.67;;
18776;SDS011;9517;51.174;4.160;2023-03-04T04:26:40;25.83;;;6.83;;
18776;SDS011;9517;51.174;4.160;2023-03-04T04:29:11;21.70;;;6.10;;
18776;SDS011;9517;51.174;4.160;2023-03-04T04:31:39;21.17;;;5.97;;
18776;SDS011;9517;51.174;4.160;2023-03-04T04:34:06;21.67;;;5.30;;
18776;SDS011;9517;51.174;4.160;2023-03-04T04:36:33;21.37;;;4.90;;
18776;SDS011;9517;51.174;4.160;2023-03-04T04:39:00;19.03;;;4.90;;
18776;SDS011;9517;51.174;4.160;2023-03-04T04:41:28;19.83;;;5.07;;
18776;SDS011;9517;51.174;4.160;2023-03-04T04:43:59;21.20;;;4.87;;
18776;SDS011;9517;51.174;4.160;2023-03-04T04:46:28;22.60;;;5.13;;
18776;SDS011;9517;51.174;4.160;2023-03-04T04:48:55;19.70;;;5.70;;
18776;SDS011;9517;51.174;4.160;2023-03-04T04:51:22;17.93;;;4.60;;
18776;SDS011;9517;51.174;4.160;2023-03-04T04:53:49;20.57;;;4.60;;
18776;SDS011;9517;51.174;4.160;2023-03-04T04:56:17;23.57;;;4.17;;
18776;SDS011;9517;51.174;4.160;2023-03-04T04:58:46;17.57;;;3.40;;
18776;SDS011;9517;51.174;4.160;2023-03-04T05:01:14;19.37;;;3.57;;
18776;SDS011;9517;51.174;4.160;2023-03-04T05:03:43;22.37;;;3.60;;
18776;SDS011;9517;51.174;4.160;2023-03-04T05:06:11;18.07;;;3.40;;
18776;SDS011;9517;51.174;4.160;2023-03-04T05:08:38;17.17;;;3.17;;
18776;SDS011;9517;51.174;4.160;2023-03-04T05:11:06;25.77;;;4.03;;
18776;SDS011;9517;51.174;4.160;2023-03-04T05:13:33;21.03;;;3.80;;
18776;SDS011;9517;51.174;4.160;2023-03-04T05:16:01;18.23;;;3.63;;
18776;SDS011;9517;51.174;4.160;2023-03-04T05:18:31;17.50;;;3.80;;
18776;SDS011;9517;51.174;4.160;2023-03-04T05:21:00;17.37;;;3.33;;
18776;SDS011;9517;51.174;4.160;2023-03-04T05:23:29;20.13;;;3.13;;
18776;SDS011;9517;51.174;4.160;2023-03-04T05:25:58;23.13;;;4.23;;
18776;SDS011;9517;51.174;4.160;2023-03-04T05:28:26;20.50;;;4.40;;
18776;SDS011;9517;51.174;4.160;2023-03-04T05:30:53;19.17;;;3.97;;
18776;SDS011;9517;51.174;4.160;2023-03-04T05:33:20;23.83;;;3.90;;
18776;SDS011;9517;51.174;4.160;2023-03-04T05:35:47;23.87;;;3.90;;
18776;SDS011;9517;51.174;4.160;2023-03-04T05:38:18;17.00;;;3.47;;
18776;SDS011;9517;51.174;4.160;2023-03-04T05:40:45;21.23;;;3.77;;
18776;SDS011;9517;51.174;4.160;2023-03-04T05:43:13;16.50;;;3.63;;
18776;SDS011;9517;51.174;4.160;2023-03-04T05:45:41;18.97;;;4.80;;
18776;SDS011;9517;51.174;4.160;2023-03-04T05:48:08;24.93;;;5.07;;
18776;SDS011;9517;51.174;4.160;2023-03-04T05:50:35;22.67;;;4.77;;
18776;SDS011;9517;51.174;4.160;2023-03-04T05:53:02;18.77;;;3.90;;
18776;SDS011;9517;51.174;4.160;2023-03-04T05:55:31;20.33;;;4.23;;
18776;SDS011;9517;51.174;4.160;2023-03-04T05:57:58;16.27;;;4.07;;
18776;SDS011;9517;51.174;4.160;2023-03-04T06:00:26;19.57;;;4.63;;
18776;SDS011;9517;51.174;4.160;2023-03-04T06:02:53;19.90;;;4.03;;
18776;SDS011;9517;51.174;4.160;2023-03-04T06:05:20;19.90;;;3.93;;
18776;SDS011;9517;51.174;4.160;2023-03-04T06:07:47;20.43;;;4.13;;
18776;SDS011;9517;51.174;4.160;2023-03-04T06:10:15;19.57;;;4.40;;
18776;SDS011;9517;51.174;4.160;2023-03-04T06:12:45;19.47;;;3.57;;
18776;SDS011;9517;51.174;4.160;2023-03-04T06:15:12;18.33;;;4.03;;
18776;SDS011;9517;51.174;4.160;2023-03-04T06:17:39;19.63;;;3.80;;
18776;SDS011;9517;51.174;4.160;2023-03-04T06:20:10;17.30;;;3.73;;
18776;SDS011;9517;51.174;4.160;2023-03-04T06:22:37;22.23;;;4.37;;
18776;SDS011;9517;51.174;4.160;2023-03-04T06:25:05;14.73;;;4.13;;
18776;SDS011;9517;51.174;4.160;2023-03-04T06:27:33;25.57;;;3.73;;
18776;SDS011;9517;51.174;4.160;2023-03-04T06:30:02;19.90;;;3.80;;
18776;SDS011;9517;51.174;4.160;2023-03-04T06:32:30;21.37;;;4.40;;
18776;SDS011;9517;51.174;4.160;2023-03-04T06:34:57;22.83;;;3.47;;
18776;SDS011;9517;51.174;4.160;2023-03-04T06:37:24;20.13;;;3.70;;
18776;SDS011;9517;51.174;4.160;2023-03-04T06:39:51;21.60;;;4.13;;
18776;SDS011;9517;51.174;4.160;2023-03-04T06:42:18;21.77;;;4.07;;
18776;SDS011;9517;51.174;4.160;2023-03-04T06:44:47;18.00;;;4.30;;
18776;SDS011;9517;51.174;4.160;2023-03-04T06:47:16;17.57;;;3.43;;
18776;SDS011;9517;51.174;4.160;2023-03-04T06:49:43;18.40;;;3.53;;
18776;SDS011;9517;51.174;4.160;2023-03-04T06:52:11;21.53;;;4.00;;
18776;SDS011;9517;51.174;4.160;2023-03-04T06:54:38;21.53;;;3.60;;
18776;SDS011;9517;51.174;4.160;2023-03-04T06:57:05;21.77;;;3.87;;
18776;SDS011;9517;51.174;4.160;2023-03-04T06:59:33;20.30;;;3.63;;
18776;SDS011;9517;51.174;4.160;2023-03-04T07:02:00;21.93;;;4.50;;
18776;SDS011;9517;51.174;4.160;2023-03-04T07:04:29;18.67;;;3.30;;
18776;SDS011;9517;51.174;4.160;2023-03-04T07:06:56;22.87;;;4.00;;
18776;SDS011;9517;51.174;4.160;2023-03-04T07:09:23;16.33;;;3.90;;
18776;SDS011;9517;51.174;4.160;2023-03-04T07:11:50;18.37;;;3.50;;
18776;SDS011;9517;51.174;4.160;2023-03-04T07:14:17;20.30;;;4.17;;
18776;SDS011;9517;51.174;4.160;2023-03-04T07:16:44;23.03;;;3.70;;
18776;SDS011;9517;51.174;4.160;2023-03-04T07:19:12;29.40;;;5.93;;
18776;SDS011;9517;51.174;4.160;2023-03-04T07:21:40;28.50;;;4.47;;
18776;SDS011;9517;51.174;4.160;2023-03-04T07:24:07;16.40;;;3.83;;
18776;SDS011;9517;51.174;4.160;2023-03-04T07:26:34;19.70;;;3.80;;
18776;SDS011;9517;51.174;4.160;2023-03-04T07:29:02;18.10;;;4.20;;
18776;SDS011;9517;51.174;4.160;2023-03-04T07:31:30;16.67;;;4.73;;
18776;SDS011;9517;51.174;4.160;2023-03-04T07:33:59;23.60;;;5.10;;
18776;SDS011;9517;51.174;4.160;2023-03-04T07:36:28;17.57;;;3.80;;
18776;SDS011;9517;51.174;4.160;2023-03-04T07:38:56;18.73;;;4.13;;
18776;SDS011;9517;51.174;4.160;2023-03-04T07:41:25;18.73;;;3.67;;
18776;SDS011;9517;51.174;4.160;2023-03-04T07:43:55;20.00;;;3.80;;
18776;SDS011;9517;51.174;4.160;2023-03-04T07:46:22;17.07;;;4.47;;
18776;SDS011;9517;51.174;4.160;2023-03-04T07:48:50;16.53;;;4.40;;
18776;SDS011;9517;51.174;4.160;2023-03-04T07:51:21;17.13;;;4.80;;
18776;SDS011;9517;51.174;4.160;2023-03-04T07:53:50;15.30;;;4.77;;
18776;SDS011;9517;51.174;4.160;2023-03-04T07:56:21;17.97;;;5.20;;
18776;SDS011;9517;51.174;4.160;2023-03-04T07:58:49;15.90;;;5.33;;
18776;SDS011;9517;51.174;4.160;2023-03-04T08:01:18;16.80;;;5.17;;
18776;SDS011;9517;51.174;4.160;2023-03-04T08:03:47;16.80;;;5.27;;
18776;SDS011;9517;51.174;4.160;2023-03-04T08:06:15;18.73;;;6.13;;
18776;SDS011;9517;51.174;4.160;2023-03-04T08:08:44;27.33;;;5.87;;
18776;SDS011;9517;51.174;4.160;2023-03-04T08:11:12;17.60;;;5.63;;
18776;SDS011;9517;51.174;4.160;2023-03-04T08:13:42;19.00;;;5.23;;
18776;SDS011;9517;51.174;4.160;2023-03-04T08:16:11;19.53;;;5.33;;
18776;SDS011;9517;51.174;4.160;2023-03-04T08:18:40;18.33;;;5.80;;
18776;SDS011;9517;51.174;4.160;2023-03-04T08:21:08;19.23;;;5.83;;
18776;SDS011;9517;51.174;4.160;2023-03-04T08:23:36;19.80;;;5.93;;
18776;SDS011;9517;51.174;4.160;2023-03-04T08:26:05;17.80;;;4.97;;
18776;SDS011;9517;51.174;4.160;2023-03-04T08:28:33;16.97;;;4.73;;
18776;SDS011;9517;51.174;4.160;2023-03-04T08:31:02;16.17;;;4.43;;
18776;SDS011;9517;51.174;4.160;2023-03-04T08:33:29;17.57;;;6.30;;
18776;SDS011;9517;51.174;4.160;2023-03-04T08:35:57;28.87;;;17.53;;
18776;SDS011;9517;51.174;4.160;2023-03-04T08:38:25;21.83;;;6.20;;
18776;SDS011;9517;51.174;4.160;2023-03-04T08:40:52;16.63;;;4.50;;
18776;SDS011;9517;51.174;4.160;2023-03-04T08:43:19;17.37;;;3.53;;
18776;SDS011;9517;51.174;4.160;2023-03-04T08:45:46;13.67;;;3.50;;
18776;SDS011;9517;51.174;4.160;2023-03-04T08:48:15;14.63;;;3.60;;
18776;SDS011;9517;51.174;4.160;2023-03-04T08:50:43;16.67;;;4.07;;
18776;SDS011;9517;51.174;4.160;2023-03-04T08:53:10;18.17;;;5.87;;
18776;SDS011;9517;51.174;4.160;2023-03-04T08:55:38;17.13;;;5.27;;
18776;SDS011;9517;51.174;4.160;2023-03-04T08:58:05;56.70;;;36.00;;
18776;SDS011;9517;51.174;4.160;2023-03-04T09:00:34;23.27;;;9.53;;
18776;SDS011;9517;51.174;4.160;2023-03-04T09:03:03;41.77;;;25.90;;
18776;SDS011;9517;51.174;4.160;2023-03-04T09:05:32;22.97;;;6.97;;
18776;SDS011;9517;51.174;4.160;2023-03-04T09:07:59;17.80;;;5.53;;
18776;SDS011;9517;51.174;4.160;2023-03-04T09:10:26;23.37;;;4.80;;
18776;SDS011;9517;51.174;4.160;2023-03-04T09:12:53;21.87;;;4.43;;
18776;SDS011;9517;51.174;4.160;2023-03-04T09:15:20;21.67;;;6.33;;
18776;SDS011;9517;51.174;4.160;2023-03-04T09:17:47;13.73;;;4.53;;
18776;SDS011;9517;51.174;4.160;2023-03-04T09:20:14;19.37;;;5.53;;
18776;SDS011;9517;51.174;4.160;2023-03-04T09:22:43;16.43;;;4.90;;
18776;SDS011;9517;51.174;4.160;2023-03-04T09:25:10;18.70;;;4.63;;
18776;SDS011;9517;51.174;4.160;2023-03-04T09:27:40;16.10;;;4.07;;
18776;SDS011;9517;51.174;4.160;2023-03-04T09:30:08;18.33;;;4.33;;
18776;SDS011;9517;51.174;4.160;2023-03-04T09:32:36;16.50;;;3.93;;
18776;SDS011;9517;51.174;4.160;2023-03-04T09:35:03;14.57;;;4.17;;
18776;SDS011;9517;51.174;4.160;2023-03-04T09:37:31;18.77;;;4.13;;
18776;SDS011;9517;51.174;4.160;2023-03-04T09:39:59;18.33;;;3.87;;
18776;SDS011;9517;51.174;4.160;2023-03-04T09:42:29;19.83;;;3.87;;
18776;SDS011;9517;51.174;4.160;2023-03-04T09:45:01;19.80;;;4.03;;
18776;SDS011;9517;51.174;4.160;2023-03-04T09:47:33;20.57;;;4.33;;
18776;SDS011;9517;51.174;4.160;2023-03-04T09:50:03;15.77;;;3.93;;
18776;SDS011;9517;51.174;4.160;2023-03-04T09:52:36;17.03;;;3.53;;
18776;SDS011;9517;51.174;4.160;2023-03-04T09:55:18;15.80;;;4.03;;
18776;SDS011;9517;51.174;4.160;2023-03-04T09:57:49;19.63;;;3.50;;
18776;SDS011;9517;51.174;4.160;2023-03-04T10:00:23;14.13;;;3.50;;
18776;SDS011;9517;51.174;4.160;2023-03-04T10:03:13;16.80;;;3.27;;
18776;SDS011;9517;51.174;4.160;2023-03-04T10:05:46;15.43;;;3.10;;
18776;SDS011;9517;51.174;4.160;2023-03-04T10:08:32;19.97;;;4.10;;
18776;SDS011;9517;51.174;4.160;2023-03-04T10:11:08;15.30;;;4.10;;
18776;SDS011;9517;51.174;4.160;2023-03-04T10:13:41;27.07;;;7.13;;
18776;SDS011;9517;51.174;4.160;2023-03-04T10:16:17;20.53;;;3.83;;
18776;SDS011;9517;51.174;4.160;2023-03-04T10:18:47;16.90;;;3.60;;
18776;SDS011;9517;51.174;4.160;2023-03-04T10:21:19;14.17;;;2.80;;
18776;SDS011;9517;51.174;4.160;2023-03-04T10:23:48;23.67;;;3.60;;
18776;SDS011;9517;51.174;4.160;2023-03-04T10:26:19;17.70;;;2.93;;
18776;SDS011;9517;51.174;4.160;2023-03-04T10:28:47;14.67;;;2.93;;
18776;SDS011;9517;51.174;4.160;2023-03-04T10:31:16;14.30;;;2.43;;
18776;SDS011;9517;51.174;4.160;2023-03-04T10:33:48;14.47;;;2.60;;
18776;SDS011;9517;51.174;4.160;2023-03-04T10:36:36;12.97;;;2.10;;
18776;SDS011;9517;51.174;4.160;2023-03-04T10:39:16;12.93;;;2.57;;
18776;SDS011;9517;51.174;4.160;2023-03-04T10:41:54;10.77;;;2.13;;
18776;SDS011;9517;51.174;4.160;2023-03-04T10:44:26;14.97;;;2.30;;
18776;SDS011;9517;51.174;4.160;2023-03-04T10:46:55;12.67;;;2.30;;
18776;SDS011;9517;51.174;4.160;2023-03-04T10:49:23;13.07;;;3.37;;
18776;SDS011;9517;51.174;4.160;2023-03-04T10:51:53;11.20;;;2.30;;
18776;SDS011;9517;51.174;4.160;2023-03-04T10:54:27;8.37;;;1.80;;
18776;SDS011;9517;51.174;4.160;2023-03-04T10:56:59;9.87;;;1.80;;
18776;SDS011;9517;51.174;4.160;2023-03-04T10:59:32;13.07;;;2.37;;
18776;SDS011;9517;51.174;4.160;2023-03-04T11:02:16;10.13;;;2.23;;
18776;SDS011;9517;51.174;4.160;2023-03-04T11:04:48;14.37;;;2.67;;
18776;SDS011;9517;51.174;4.160;2023-03-04T11:07:17;8.83;;;1.97;;
18776;SDS011;9517;51.174;4.160;2023-03-04T11:09:45;13.07;;;2.83;;
18776;SDS011;9517;51.174;4.160;2023-03-04T11:12:16;17.77;;;4.30;;
18776;SDS011;9517;51.174;4.160;2023-03-04T11:14:46;16.03;;;4.40;;
18776;SDS011;9517;51.174;4.160;2023-03-04T11:17:19;13.07;;;3.20;;
18776;SDS011;9517;51.174;4.160;2023-03-04T11:19:51;13.33;;;3.37;;
18776;SDS011;9517;51.174;4.160;2023-03-04T11:22:22;11.43;;;2.73;;
18776;SDS011;9517;51.174;4.160;2023-03-04T11:25:01;11.77;;;1.97;;
18776;SDS011;9517;51.174;4.160;2023-03-04T11:27:35;9.60;;;1.93;;
18776;SDS011;9517;51.174;4.160;2023-03-04T11:30:18;6.37;;;1.57;;
18776;SDS011;9517;51.174;4.160;2023-03-04T11:32:55;9.87;;;1.93;;
18776;SDS011;9517;51.174;4.160;2023-03-04T11:35:30;6.10;;;1.47;;
18776;SDS011;9517;51.174;4.160;2023-03-04T11:38:05;4.90;;;1.30;;
18776;SDS011;9517;51.174;4.160;2023-03-04T11:40:41;7.03;;;1.73;;
18776;SDS011;9517;51.174;4.160;2023-03-04T11:43:13;6.47;;;2.00;;
18776;SDS011;9517;51.174;4.160;2023-03-04T11:45:48;6.83;;;1.93;;
18776;SDS011;9517;51.174;4.160;2023-03-04T11:48:47;6.67;;;1.70;;
18776;SDS011;9517;51.174;4.160;2023-03-04T11:51:20;9.00;;;3.50;;
18776;SDS011;9517;51.174;4.160;2023-03-04T11:53:55;5.13;;;1.50;;
18776;SDS011;9517;51.174;4.160;2023-03-04T11:56:38;3.93;;;1.20;;
18776;SDS011;9517;51.174;4.160;2023-03-04T11:59:18;2.83;;;1.13;;
18776;SDS011;9517;51.174;4.160;2023-03-04T12:02:15;2.90;;;1.00;;
18776;SDS011;9517;51.174;4.160;2023-03-04T12:10:46;3.30;;;1.47;;
18776;SDS011;9517;51.174;4.160;2023-03-04T12:13:26;6.10;;;1.70;;
18776;SDS011;9517;51.174;4.160;2023-03-04T12:16:10;7.73;;;1.83;;
18776;SDS011;9517;51.174;4.160;2023-03-04T12:21:49;6.03;;;1.80;;
18776;SDS011;9517;51.174;4.160;2023-03-04T12:27:29;4.47;;;1.20;;
18776;SDS011;9517;51.174;4.160;2023-03-04T12:30:05;6.33;;;1.40;;
18776;SDS011;9517;51.174;4.160;2023-03-04T12:32:45;2.17;;;0.80;;
18776;SDS011;9517;51.174;4.160;2023-03-04T12:35:27;5.67;;;1.20;;
18776;SDS011;9517;51.174;4.160;2023-03-04T12:38:05;2.00;;;0.70;;
18776;SDS011;9517;51.174;4.160;2023-03-04T12:40:48;6.67;;;1.07;;
18776;SDS011;9517;51.174;4.160;2023-03-04T12:43:29;3.73;;;0.93;;
18776;SDS011;9517;51.174;4.160;2023-03-04T12:46:13;3.10;;;0.90;;
18776;SDS011;9517;51.174;4.160;2023-03-04T12:49:08;3.80;;;0.90;;
18776;SDS011;9517;51.174;4.160;2023-03-04T12:51:53;2.10;;;0.63;;
18776;SDS011;9517;51.174;4.160;2023-03-04T12:54:30;2.63;;;0.63;;
18776;SDS011;9517;51.174;4.160;2023-03-04T12:57:01;4.90;;;0.93;;
18776;SDS011;9517;51.174;4.160;2023-03-04T12:59:33;3.07;;;0.77;;
18776;SDS011;9517;51.174;4.160;2023-03-04T13:05:18;3.30;;;0.83;;
18776;SDS011;9517;51.174;4.160;2023-03-04T13:07:54;6.70;;;1.10;;
18776;SDS011;9517;51.174;4.160;2023-03-04T13:10:27;3.90;;;0.80;;
18776;SDS011;9517;51.174;4.160;2023-03-04T13:12:56;2.27;;;0.77;;
18776;SDS011;9517;51.174;4.160;2023-03-04T13:15:34;7.33;;;1.07;;
18776;SDS011;9517;51.174;4.160;2023-03-04T13:21:15;4.90;;;1.00;;
18776;SDS011;9517;51.174;4.160;2023-03-04T13:23:48;5.03;;;0.90;;
18776;SDS011;9517;51.174;4.160;2023-03-04T13:26:22;7.87;;;1.40;;
18776;SDS011;9517;51.174;4.160;2023-03-04T13:32:04;9.33;;;1.60;;
18776;SDS011;9517;51.174;4.160;2023-03-04T13:34:46;5.83;;;1.30;;
18776;SDS011;9517;51.174;4.160;2023-03-04T13:37:26;7.37;;;1.40;;
18776;SDS011;9517;51.174;4.160;2023-03-04T13:43:19;8.13;;;1.53;;
18776;SDS011;9517;51.174;4.160;2023-03-04T13:45:51;9.47;;;1.53;;
18776;SDS011;9517;51.174;4.160;2023-03-04T13:48:26;7.93;;;1.50;;
18776;SDS011;9517;51.174;4.160;2023-03-04T13:51:00;6.20;;;1.23;;
18776;SDS011;9517;51.174;4.160;2023-03-04T13:53:39;9.63;;;1.20;;
18776;SDS011;9517;51.174;4.160;2023-03-04T13:56:24;9.87;;;1.53;;
18776;SDS011;9517;51.174;4.160;2023-03-04T13:59:03;7.80;;;1.23;;
18776;SDS011;9517;51.174;4.160;2023-03-04T14:01:50;6.90;;;1.37;;
18776;SDS011;9517;51.174;4.160;2023-03-04T14:04:22;13.13;;;1.83;;
18776;SDS011;9517;51.174;4.160;2023-03-04T14:06:53;12.20;;;1.53;;
18776;SDS011;9517;51.174;4.160;2023-03-04T14:09:25;8.70;;;1.40;;
18776;SDS011;9517;51.174;4.160;2023-03-04T14:11:54;7.97;;;1.40;;
18776;SDS011;9517;51.174;4.160;2023-03-04T14:14:23;8.63;;;1.20;;
18776;SDS011;9517;51.174;4.160;2023-03-04T14:16:53;9.23;;;1.30;;
18776;SDS011;9517;51.174;4.160;2023-03-04T14:19:23;7.03;;;1.23;;
18776;SDS011;9517;51.174;4.160;2023-03-04T14:21:52;7.60;;;1.30;;
18776;SDS011;9517;51.174;4.160;2023-03-04T14:24:20;7.80;;;1.47;;
18776;SDS011;9517;51.174;4.160;2023-03-04T14:26:55;9.40;;;1.47;;
18776;SDS011;9517;51.174;4.160;2023-03-04T14:29:32;9.33;;;1.33;;
18776;SDS011;9517;51.174;4.160;2023-03-04T14:32:00;6.27;;;1.10;;
18776;SDS011;9517;51.174;4.160;2023-03-04T14:34:29;8.63;;;1.40;;
18776;SDS011;9517;51.174;4.160;2023-03-04T14:36:59;7.87;;;1.00;;
18776;SDS011;9517;51.174;4.160;2023-03-04T14:39:28;7.20;;;1.40;;
18776;SDS011;9517;51.174;4.160;2023-03-04T14:42:00;7.43;;;1.33;;
18776;SDS011;9517;51.174;4.160;2023-03-04T14:44:33;5.83;;;1.23;;
18776;SDS011;9517;51.174;4.160;2023-03-04T14:47:07;7.47;;;1.20;;
18776;SDS011;9517;51.174;4.160;2023-03-04T14:49:41;10.97;;;1.40;;
18776;SDS011;9517;51.174;4.160;2023-03-04T14:55:15;6.30;;;1.50;;
18776;SDS011;9517;51.174;4.160;2023-03-04T14:57:48;7.07;;;1.87;;
18776;SDS011;9517;51.174;4.160;2023-03-04T15:00:24;8.03;;;1.20;;
18776;SDS011;9517;51.174;4.160;2023-03-04T15:02:56;10.57;;;1.40;;
18776;SDS011;9517;51.174;4.160;2023-03-04T15:05:38;8.30;;;1.83;;
18776;SDS011;9517;51.174;4.160;2023-03-04T15:08:17;6.50;;;1.20;;
18776;SDS011;9517;51.174;4.160;2023-03-04T15:10:52;6.50;;;1.50;;
18776;SDS011;9517;51.174;4.160;2023-03-04T15:13:37;7.03;;;1.10;;
18776;SDS011;9517;51.174;4.160;2023-03-04T15:16:05;6.10;;;1.20;;
18776;SDS011;9517;51.174;4.160;2023-03-04T15:18:34;8.70;;;1.50;;
18776;SDS011;9517;51.174;4.160;2023-03-04T15:21:02;8.20;;;1.20;;
18776;SDS011;9517;51.174;4.160;2023-03-04T15:23:31;9.57;;;1.37;;
18776;SDS011;9517;51.174;4.160;2023-03-04T15:25:59;5.53;;;1.30;;
18776;SDS011;9517;51.174;4.160;2023-03-04T15:28:31;7.67;;;1.30;;
18776;SDS011;9517;51.174;4.160;2023-03-04T15:31:01;10.83;;;1.30;;
18776;SDS011;9517;51.174;4.160;2023-03-04T15:33:29;8.77;;;1.60;;
18776;SDS011;9517;51.174;4.160;2023-03-04T15:35:57;11.03;;;2.03;;
18776;SDS011;9517;51.174;4.160;2023-03-04T15:38:26;10.47;;;2.20;;
18776;SDS011;9517;51.174;4.160;2023-03-04T15:40:54;12.83;;;1.93;;
18776;SDS011;9517;51.174;4.160;2023-03-04T15:43:23;10.10;;;1.70;;